sensor_id;sensor_type;location;lat;lon;timestamp;P1;durP1;ratioP1;P2;durP2;ratioP2
4961;SDS011;2496;52.468;13.342;2023-04-24T00:01:14;7.00;;;5.97;;
4961;SDS011;2496;52.468;13.342;2023-04-24T00:03:43;7.93;;;5.23;;
4961;SDS011;2496;52.468;13.342;2023-04-24T00:06:10;12.53;;;5.87;;
4961;SDS011;2496;52.468;13.342;2023-04-24T00:08:37;5.50;;;5.00;;
4961;SDS011;2496;52.468;13.342;2023-04-24T00:11:04;6.60;;;5.90;;
4961;SDS011;2496;52.468;13.342;2023-04-24T00:13:31;7.17;;;6.00;;
4961;SDS011;2496;52.468;13.342;2023-04-24T00:15:58;6.30;;;5.20;;
4961;SDS011;2496;52.468;13.342;2023-04-24T00:18:25;5.80;;;5.23;;
4961;SDS011;2496;52.468;13.342;2023-04-24T00:20:54;5.80;;;5.20;;
4961;SDS011;2496;52.468;13.342;2023-04-24T00:23:21;9.13;;;6.10;;
4961;SDS011;2496;52.468;13.342;2023-04-24T00:25:48;9.67;;;5.50;;
4961;SDS011;2496;52.468;13.342;2023-04-24T00:28:15;5.97;;;5.37;;
4961;SDS011;2496;52.468;13.342;2023-04-24T00:30:42;7.10;;;5.83;;
4961;SDS011;2496;52.468;13.342;2023-04-24T00:33:09;6.47;;;4.97;;
4961;SDS011;2496;52.468;13.342;2023-04-24T00:35:36;7.33;;;5.40;;
4961;SDS011;2496;52.468;13.342;2023-04-24T00:38:04;6.43;;;5.47;;
4961;SDS011;2496;52.468;13.342;2023-04-24T00:40:32;7.43;;;5.33;;
4961;SDS011;2496;52.468;13.342;2023-04-24T00:42:59;6.57;;;5.90;;
4961;SDS011;2496;52.468;13.342;2023-04-24T00:45:26;7.70;;;5.53;;
4961;SDS011;2496;52.468;13.342;2023-04-24T00:47:56;6.90;;;5.50;;
4961;SDS011;2496;52.468;13.342;2023-04-24T00:50:24;6.53;;;5.60;;
4961;SDS011;2496;52.468;13.342;2023-04-24T00:52:51;8.07;;;6.37;;
4961;SDS011;2496;52.468;13.342;2023-04-24T00:55:21;6.33;;;5.73;;
4961;SDS011;2496;52.468;13.342;2023-04-24T00:57:48;6.50;;;5.43;;
4961;SDS011;2496;52.468;13.342;2023-04-24T01:00:16;6.40;;;5.70;;
4961;SDS011;2496;52.468;13.342;2023-04-24T01:02:44;5.43;;;4.93;;
4961;SDS011;2496;52.468;13.342;2023-04-24T01:05:13;7.83;;;6.43;;
4961;SDS011;2496;52.468;13.342;2023-04-24T01:07:43;6.57;;;5.87;;
4961;SDS011;2496;52.468;13.342;2023-04-24T01:10:14;6.20;;;5.50;;
4961;SDS011;2496;52.468;13.342;2023-04-24T01:12:44;9.00;;;5.57;;
4961;SDS011;2496;52.468;13.342;2023-04-24T01:15:12;6.70;;;5.33;;
4961;SDS011;2496;52.468;13.342;2023-04-24T01:17:39;7.10;;;5.37;;
4961;SDS011;2496;52.468;13.342;2023-04-24T01:20:06;5.77;;;5.17;;
4961;SDS011;2496;52.468;13.342;2023-04-24T01:22:35;6.70;;;6.00;;
4961;SDS011;2496;52.468;13.342;2023-04-24T01:25:03;7.60;;;5.87;;
4961;SDS011;2496;52.468;13.342;2023-04-24T01:27:31;11.83;;;5.57;;
4961;SDS011;2496;52.468;13.342;2023-04-24T01:29:59;6.30;;;5.43;;
4961;SDS011;2496;52.468;13.342;2023-04-24T01:32:26;9.10;;;7.50;;
4961;SDS011;2496;52.468;13.342;2023-04-24T01:34:54;7.43;;;5.60;;
4961;SDS011;2496;52.468;13.342;2023-04-24T01:37:22;7.70;;;5.77;;
4961;SDS011;2496;52.468;13.342;2023-04-24T01:39:51;10.33;;;6.47;;
4961;SDS011;2496;52.468;13.342;2023-04-24T01:42:19;9.20;;;6.63;;
4961;SDS011;2496;52.468;13.342;2023-04-24T01:44:47;10.40;;;7.30;;
4961;SDS011;2496;52.468;13.342;2023-04-24T01:47:16;9.80;;;6.73;;
4961;SDS011;2496;52.468;13.342;2023-04-24T01:49:44;8.07;;;6.60;;
4961;SDS011;2496;52.468;13.342;2023-04-24T01:52:12;7.00;;;5.60;;
4961;SDS011;2496;52.468;13.342;2023-04-24T01:54:39;12.90;;;6.73;;
4961;SDS011;2496;52.468;13.342;2023-04-24T01:57:08;8.03;;;6.50;;
4961;SDS011;2496;52.468;13.342;2023-04-24T01:59:36;8.20;;;6.90;;
4961;SDS011;2496;52.468;13.342;2023-04-24T02:02:03;6.57;;;5.87;;
4961;SDS011;2496;52.468;13.342;2023-04-24T02:04:31;7.30;;;6.53;;
4961;SDS011;2496;52.468;13.342;2023-04-24T02:06:58;9.90;;;6.77;;
4961;SDS011;2496;52.468;13.342;2023-04-24T02:09:25;7.13;;;6.43;;
4961;SDS011;2496;52.468;13.342;2023-04-24T02:11:52;9.90;;;6.70;;
4961;SDS011;2496;52.468;13.342;2023-04-24T02:14:22;7.03;;;6.33;;
4961;SDS011;2496;52.468;13.342;2023-04-24T02:16:49;7.50;;;6.33;;
4961;SDS011;2496;52.468;13.342;2023-04-24T02:19:18;9.47;;;6.13;;
4961;SDS011;2496;52.468;13.342;2023-04-24T02:21:45;13.60;;;8.53;;
4961;SDS011;2496;52.468;13.342;2023-04-24T02:24:13;10.47;;;8.07;;
4961;SDS011;2496;52.468;13.342;2023-04-24T02:26:40;10.57;;;8.50;;
4961;SDS011;2496;52.468;13.342;2023-04-24T02:29:08;8.60;;;6.57;;
4961;SDS011;2496;52.468;13.342;2023-04-24T02:31:37;9.63;;;7.10;;
4961;SDS011;2496;52.468;13.342;2023-04-24T02:34:04;8.33;;;6.80;;
4961;SDS011;2496;52.468;13.342;2023-04-24T02:36:31;8.83;;;7.80;;
4961;SDS011;2496;52.468;13.342;2023-04-24T02:38:58;8.07;;;6.77;;
4961;SDS011;2496;52.468;13.342;2023-04-24T02:41:26;8.97;;;6.20;;
4961;SDS011;2496;52.468;13.342;2023-04-24T02:43:57;6.70;;;6.00;;
4961;SDS011;2496;52.468;13.342;2023-04-24T02:46:25;7.50;;;6.70;;
4961;SDS011;2496;52.468;13.342;2023-04-24T02:48:54;8.37;;;6.87;;
4961;SDS011;2496;52.468;13.342;2023-04-24T02:51:21;7.63;;;6.83;;
4961;SDS011;2496;52.468;13.342;2023-04-24T02:53:48;9.27;;;6.87;;
4961;SDS011;2496;52.468;13.342;2023-04-24T02:56:15;7.23;;;6.50;;
4961;SDS011;2496;52.468;13.342;2023-04-24T02:58:42;7.80;;;7.00;;
4961;SDS011;2496;52.468;13.342;2023-04-24T03:01:09;12.83;;;6.83;;
4961;SDS011;2496;52.468;13.342;2023-04-24T03:03:37;8.57;;;6.70;;
4961;SDS011;2496;52.468;13.342;2023-04-24T03:06:06;12.10;;;7.23;;
4961;SDS011;2496;52.468;13.342;2023-04-24T03:08:34;8.67;;;6.63;;
4961;SDS011;2496;52.468;13.342;2023-04-24T03:11:01;7.83;;;6.70;;
4961;SDS011;2496;52.468;13.342;2023-04-24T03:13:29;7.37;;;6.30;;
4961;SDS011;2496;52.468;13.342;2023-04-24T03:15:56;7.60;;;6.77;;
4961;SDS011;2496;52.468;13.342;2023-04-24T03:18:23;8.70;;;6.27;;
4961;SDS011;2496;52.468;13.342;2023-04-24T03:20:50;8.80;;;6.97;;
4961;SDS011;2496;52.468;13.342;2023-04-24T03:23:19;7.80;;;6.37;;
4961;SDS011;2496;52.468;13.342;2023-04-24T03:25:46;9.37;;;6.70;;
4961;SDS011;2496;52.468;13.342;2023-04-24T03:28:13;7.10;;;6.40;;
4961;SDS011;2496;52.468;13.342;2023-04-24T03:30:41;6.97;;;6.13;;
4961;SDS011;2496;52.468;13.342;2023-04-24T03:33:08;9.33;;;5.70;;
4961;SDS011;2496;52.468;13.342;2023-04-24T03:35:35;8.97;;;6.60;;
4961;SDS011;2496;52.468;13.342;2023-04-24T03:38:02;10.70;;;6.70;;
4961;SDS011;2496;52.468;13.342;2023-04-24T03:40:32;7.33;;;6.50;;
4961;SDS011;2496;52.468;13.342;2023-04-24T03:42:59;8.13;;;6.87;;
4961;SDS011;2496;52.468;13.342;2023-04-24T03:45:26;12.27;;;7.03;;
4961;SDS011;2496;52.468;13.342;2023-04-24T03:47:54;8.93;;;6.20;;
4961;SDS011;2496;52.468;13.342;2023-04-24T03:50:21;7.00;;;6.27;;
4961;SDS011;2496;52.468;13.342;2023-04-24T03:52:48;8.63;;;6.67;;
4961;SDS011;2496;52.468;13.342;2023-04-24T03:55:15;7.60;;;6.83;;
4961;SDS011;2496;52.468;13.342;2023-04-24T03:57:44;9.57;;;6.90;;
4961;SDS011;2496;52.468;13.342;2023-04-24T04:00:12;7.83;;;6.33;;
4961;SDS011;2496;52.468;13.342;2023-04-24T04:02:39;9.03;;;6.60;;
4961;SDS011;2496;52.468;13.342;2023-04-24T04:05:07;7.30;;;6.00;;
4961;SDS011;2496;52.468;13.342;2023-04-24T04:07:35;7.90;;;6.70;;
4961;SDS011;2496;52.468;13.342;2023-04-24T04:10:02;8.57;;;7.30;;
4961;SDS011;2496;52.468;13.342;2023-04-24T04:12:30;8.50;;;7.43;;
4961;SDS011;2496;52.468;13.342;2023-04-24T04:14:59;8.20;;;5.87;;
4961;SDS011;2496;52.468;13.342;2023-04-24T04:17:26;6.53;;;5.93;;
4961;SDS011;2496;52.468;13.342;2023-04-24T04:19:53;7.80;;;6.57;;
4961;SDS011;2496;52.468;13.342;2023-04-24T04:22:20;10.50;;;8.00;;
4961;SDS011;2496;52.468;13.342;2023-04-24T04:24:47;8.17;;;6.57;;
4961;SDS011;2496;52.468;13.342;2023-04-24T04:27:16;12.67;;;8.67;;
4961;SDS011;2496;52.468;13.342;2023-04-24T04:29:43;9.30;;;7.30;;
4961;SDS011;2496;52.468;13.342;2023-04-24T04:32:12;7.80;;;6.10;;
4961;SDS011;2496;52.468;13.342;2023-04-24T04:34:40;6.00;;;5.40;;
4961;SDS011;2496;52.468;13.342;2023-04-24T04:37:07;8.83;;;6.30;;
4961;SDS011;2496;52.468;13.342;2023-04-24T04:39:36;8.13;;;7.07;;
4961;SDS011;2496;52.468;13.342;2023-04-24T04:42:03;7.67;;;6.40;;
4961;SDS011;2496;52.468;13.342;2023-04-24T04:44:32;6.80;;;6.10;;
4961;SDS011;2496;52.468;13.342;2023-04-24T04:47:00;7.20;;;5.67;;
4961;SDS011;2496;52.468;13.342;2023-04-24T04:49:32;8.00;;;6.30;;
4961;SDS011;2496;52.468;13.342;2023-04-24T04:51:59;8.13;;;6.43;;
4961;SDS011;2496;52.468;13.342;2023-04-24T04:54:26;6.83;;;5.60;;
4961;SDS011;2496;52.468;13.342;2023-04-24T04:56:54;10.57;;;6.00;;
4961;SDS011;2496;52.468;13.342;2023-04-24T04:59:22;8.87;;;6.10;;
4961;SDS011;2496;52.468;13.342;2023-04-24T05:01:50;6.90;;;5.03;;
4961;SDS011;2496;52.468;13.342;2023-04-24T05:04:17;11.13;;;6.57;;
4961;SDS011;2496;52.468;13.342;2023-04-24T05:06:46;7.00;;;5.03;;
4961;SDS011;2496;52.468;13.342;2023-04-24T05:09:13;8.43;;;4.10;;
4961;SDS011;2496;52.468;13.342;2023-04-24T05:11:41;4.80;;;4.10;;
4961;SDS011;2496;52.468;13.342;2023-04-24T05:14:09;7.40;;;4.10;;
4961;SDS011;2496;52.468;13.342;2023-04-24T05:16:37;7.20;;;3.83;;
4961;SDS011;2496;52.468;13.342;2023-04-24T05:19:05;5.70;;;3.93;;
4961;SDS011;2496;52.468;13.342;2023-04-24T05:21:32;3.80;;;3.40;;
4961;SDS011;2496;52.468;13.342;2023-04-24T05:24:00;5.73;;;3.80;;
4961;SDS011;2496;52.468;13.342;2023-04-24T05:26:27;6.13;;;3.73;;
4961;SDS011;2496;52.468;13.342;2023-04-24T05:28:55;13.03;;;3.63;;
4961;SDS011;2496;52.468;13.342;2023-04-24T05:31:22;6.30;;;4.30;;
4961;SDS011;2496;52.468;13.342;2023-04-24T05:33:49;5.03;;;3.20;;
4961;SDS011;2496;52.468;13.342;2023-04-24T05:36:16;7.13;;;3.43;;
4961;SDS011;2496;52.468;13.342;2023-04-24T05:38:43;13.60;;;4.07;;
4961;SDS011;2496;52.468;13.342;2023-04-24T05:41:11;6.23;;;3.30;;
4961;SDS011;2496;52.468;13.342;2023-04-24T05:43:38;3.80;;;3.43;;
4961;SDS011;2496;52.468;13.342;2023-04-24T05:46:05;5.60;;;3.70;;
4961;SDS011;2496;52.468;13.342;2023-04-24T05:48:32;8.50;;;3.67;;
4961;SDS011;2496;52.468;13.342;2023-04-24T05:50:59;7.27;;;3.50;;
4961;SDS011;2496;52.468;13.342;2023-04-24T05:53:26;4.17;;;3.13;;
4961;SDS011;2496;52.468;13.342;2023-04-24T05:55:53;6.30;;;2.60;;
4961;SDS011;2496;52.468;13.342;2023-04-24T05:58:22;10.90;;;3.70;;
4961;SDS011;2496;52.468;13.342;2023-04-24T06:00:49;4.00;;;2.90;;
4961;SDS011;2496;52.468;13.342;2023-04-24T06:03:16;4.50;;;3.13;;
4961;SDS011;2496;52.468;13.342;2023-04-24T06:05:43;3.77;;;2.93;;
4961;SDS011;2496;52.468;13.342;2023-04-24T06:08:10;3.27;;;2.80;;
4961;SDS011;2496;52.468;13.342;2023-04-24T06:10:38;2.87;;;2.63;;
4961;SDS011;2496;52.468;13.342;2023-04-24T06:13:05;5.20;;;2.60;;
4961;SDS011;2496;52.468;13.342;2023-04-24T06:15:33;4.07;;;2.30;;
4961;SDS011;2496;52.468;13.342;2023-04-24T06:18:00;4.50;;;2.73;;
4961;SDS011;2496;52.468;13.342;2023-04-24T06:20:27;2.97;;;2.53;;
4961;SDS011;2496;52.468;13.342;2023-04-24T06:22:54;3.23;;;2.50;;
4961;SDS011;2496;52.468;13.342;2023-04-24T06:25:22;5.00;;;2.53;;
4961;SDS011;2496;52.468;13.342;2023-04-24T06:27:50;8.67;;;2.10;;
4961;SDS011;2496;52.468;13.342;2023-04-24T06:30:20;4.90;;;2.03;;
4961;SDS011;2496;52.468;13.342;2023-04-24T06:32:49;4.37;;;2.37;;
4961;SDS011;2496;52.468;13.342;2023-04-24T06:35:16;5.83;;;2.30;;
4961;SDS011;2496;52.468;13.342;2023-04-24T06:37:43;4.57;;;3.10;;
4961;SDS011;2496;52.468;13.342;2023-04-24T06:40:10;2.90;;;1.80;;
4961;SDS011;2496;52.468;13.342;2023-04-24T06:42:37;11.70;;;2.50;;
4961;SDS011;2496;52.468;13.342;2023-04-24T06:45:05;4.40;;;2.10;;
4961;SDS011;2496;52.468;13.342;2023-04-24T06:47:32;4.93;;;2.10;;
4961;SDS011;2496;52.468;13.342;2023-04-24T06:50:00;5.63;;;1.60;;
4961;SDS011;2496;52.468;13.342;2023-04-24T06:52:27;10.30;;;2.10;;
4961;SDS011;2496;52.468;13.342;2023-04-24T06:54:59;2.07;;;1.70;;
4961;SDS011;2496;52.468;13.342;2023-04-24T06:57:27;2.27;;;1.80;;
4961;SDS011;2496;52.468;13.342;2023-04-24T06:59:54;12.27;;;1.90;;
4961;SDS011;2496;52.468;13.342;2023-04-24T07:02:21;4.10;;;1.70;;
4961;SDS011;2496;52.468;13.342;2023-04-24T07:04:49;3.03;;;2.00;;
4961;SDS011;2496;52.468;13.342;2023-04-24T07:07:17;3.20;;;1.80;;
4961;SDS011;2496;52.468;13.342;2023-04-24T07:09:44;3.20;;;1.70;;
4961;SDS011;2496;52.468;13.342;2023-04-24T07:12:11;2.77;;;1.90;;
4961;SDS011;2496;52.468;13.342;2023-04-24T07:14:38;5.47;;;1.67;;
4961;SDS011;2496;52.468;13.342;2023-04-24T07:17:05;4.07;;;1.30;;
4961;SDS011;2496;52.468;13.342;2023-04-24T07:19:33;2.60;;;1.27;;
4961;SDS011;2496;52.468;13.342;2023-04-24T07:22:02;1.50;;;1.40;;
4961;SDS011;2496;52.468;13.342;2023-04-24T07:24:30;1.90;;;1.50;;
4961;SDS011;2496;52.468;13.342;2023-04-24T07:26:58;2.57;;;1.50;;
4961;SDS011;2496;52.468;13.342;2023-04-24T07:29:26;2.57;;;1.33;;
4961;SDS011;2496;52.468;13.342;2023-04-24T07:31:53;2.03;;;1.40;;
4961;SDS011;2496;52.468;13.342;2023-04-24T07:34:21;2.30;;;1.33;;
4961;SDS011;2496;52.468;13.342;2023-04-24T07:36:48;5.07;;;1.47;;
4961;SDS011;2496;52.468;13.342;2023-04-24T07:39:15;5.07;;;1.60;;
4961;SDS011;2496;52.468;13.342;2023-04-24T07:41:44;2.23;;;1.10;;
4961;SDS011;2496;52.468;13.342;2023-04-24T07:44:10;1.90;;;1.33;;
4961;SDS011;2496;52.468;13.342;2023-04-24T07:46:37;1.47;;;1.20;;
4961;SDS011;2496;52.468;13.342;2023-04-24T07:49:05;24.03;;;7.40;;
4961;SDS011;2496;52.468;13.342;2023-04-24T07:51:32;1.60;;;1.10;;
4961;SDS011;2496;52.468;13.342;2023-04-24T07:54:03;3.73;;;1.20;;
4961;SDS011;2496;52.468;13.342;2023-04-24T07:56:31;1.87;;;1.10;;
4961;SDS011;2496;52.468;13.342;2023-04-24T07:58:59;2.73;;;1.30;;
4961;SDS011;2496;52.468;13.342;2023-04-24T08:01:27;4.43;;;1.60;;
4961;SDS011;2496;52.468;13.342;2023-04-24T08:03:54;4.27;;;1.40;;
4961;SDS011;2496;52.468;13.342;2023-04-24T08:06:21;1.70;;;1.20;;
4961;SDS011;2496;52.468;13.342;2023-04-24T08:08:49;4.20;;;1.40;;
4961;SDS011;2496;52.468;13.342;2023-04-24T08:11:16;1.73;;;1.37;;
4961;SDS011;2496;52.468;13.342;2023-04-24T08:13:43;1.30;;;1.20;;
4961;SDS011;2496;52.468;13.342;2023-04-24T08:16:12;2.50;;;1.40;;
4961;SDS011;2496;52.468;13.342;2023-04-24T08:18:39;3.97;;;1.47;;
4961;SDS011;2496;52.468;13.342;2023-04-24T08:21:06;3.20;;;1.70;;
4961;SDS011;2496;52.468;13.342;2023-04-24T08:23:33;3.47;;;1.20;;
4961;SDS011;2496;52.468;13.342;2023-04-24T08:26:00;1.40;;;1.30;;
4961;SDS011;2496;52.468;13.342;2023-04-24T08:28:28;2.63;;;1.00;;
4961;SDS011;2496;52.468;13.342;2023-04-24T08:30:55;2.70;;;1.00;;
4961;SDS011;2496;52.468;13.342;2023-04-24T08:33:24;2.73;;;0.93;;
4961;SDS011;2496;52.468;13.342;2023-04-24T08:35:51;3.73;;;1.30;;
4961;SDS011;2496;52.468;13.342;2023-04-24T08:38:19;2.80;;;1.30;;
4961;SDS011;2496;52.468;13.342;2023-04-24T08:40:46;2.17;;;1.80;;
4961;SDS011;2496;52.468;13.342;2023-04-24T08:43:14;5.60;;;1.20;;
4961;SDS011;2496;52.468;13.342;2023-04-24T08:45:43;2.57;;;1.33;;
4961;SDS011;2496;52.468;13.342;2023-04-24T08:48:10;2.70;;;1.13;;
4961;SDS011;2496;52.468;13.342;2023-04-24T08:50:39;1.80;;;1.30;;
4961;SDS011;2496;52.468;13.342;2023-04-24T08:53:08;4.30;;;2.10;;
4961;SDS011;2496;52.468;13.342;2023-04-24T08:55:35;2.30;;;1.70;;
4961;SDS011;2496;52.468;13.342;2023-04-24T08:58:03;6.83;;;1.30;;
4961;SDS011;2496;52.468;13.342;2023-04-24T09:00:30;4.90;;;1.40;;
4961;SDS011;2496;52.468;13.342;2023-04-24T09:02:59;1.20;;;1.10;;
4961;SDS011;2496;52.468;13.342;2023-04-24T09:05:27;2.00;;;1.00;;
4961;SDS011;2496;52.468;13.342;2023-04-24T09:07:56;3.67;;;1.50;;
4961;SDS011;2496;52.468;13.342;2023-04-24T09:10:24;2.00;;;1.30;;
4961;SDS011;2496;52.468;13.342;2023-04-24T09:12:53;3.07;;;1.27;;
4961;SDS011;2496;52.468;13.342;2023-04-24T09:15:21;1.73;;;1.40;;
4961;SDS011;2496;52.468;13.342;2023-04-24T09:17:48;3.67;;;1.30;;
4961;SDS011;2496;52.468;13.342;2023-04-24T09:20:16;1.40;;;1.10;;
4961;SDS011;2496;52.468;13.342;2023-04-24T09:22:43;2.70;;;1.50;;
4961;SDS011;2496;52.468;13.342;2023-04-24T09:25:13;6.20;;;1.70;;
4961;SDS011;2496;52.468;13.342;2023-04-24T09:27:43;3.27;;;1.53;;
4961;SDS011;2496;52.468;13.342;2023-04-24T09:30:12;5.80;;;1.63;;
4961;SDS011;2496;52.468;13.342;2023-04-24T09:32:40;3.00;;;1.43;;
4961;SDS011;2496;52.468;13.342;2023-04-24T09:35:07;3.37;;;1.40;;
4961;SDS011;2496;52.468;13.342;2023-04-24T09:37:36;1.60;;;1.10;;
4961;SDS011;2496;52.468;13.342;2023-04-24T09:40:13;3.57;;;1.37;;
4961;SDS011;2496;52.468;13.342;2023-04-24T09:42:44;1.40;;;1.10;;
4961;SDS011;2496;52.468;13.342;2023-04-24T09:45:12;5.03;;;1.33;;
4961;SDS011;2496;52.468;13.342;2023-04-24T09:47:39;4.07;;;2.00;;
4961;SDS011;2496;52.468;13.342;2023-04-24T09:50:11;6.87;;;1.40;;
4961;SDS011;2496;52.468;13.342;2023-04-24T09:52:40;2.50;;;1.47;;
4961;SDS011;2496;52.468;13.342;2023-04-24T09:55:13;7.10;;;1.90;;
4961;SDS011;2496;52.468;13.342;2023-04-24T09:57:47;2.60;;;1.47;;
4961;SDS011;2496;52.468;13.342;2023-04-24T10:00:17;2.80;;;1.10;;
4961;SDS011;2496;52.468;13.342;2023-04-24T10:02:49;2.53;;;1.40;;
4961;SDS011;2496;52.468;13.342;2023-04-24T10:05:17;2.80;;;1.20;;
4961;SDS011;2496;52.468;13.342;2023-04-24T10:07:44;1.33;;;1.23;;
4961;SDS011;2496;52.468;13.342;2023-04-24T10:10:11;3.50;;;1.70;;
4961;SDS011;2496;52.468;13.342;2023-04-24T10:12:40;1.90;;;1.33;;
4961;SDS011;2496;52.468;13.342;2023-04-24T10:15:10;2.20;;;1.30;;
4961;SDS011;2496;52.468;13.342;2023-04-24T10:17:38;5.23;;;1.30;;
4961;SDS011;2496;52.468;13.342;2023-04-24T10:20:07;2.27;;;1.10;;
4961;SDS011;2496;52.468;13.342;2023-04-24T10:22:35;2.20;;;1.40;;
4961;SDS011;2496;52.468;13.342;2023-04-24T10:25:03;3.13;;;2.13;;
4961;SDS011;2496;52.468;13.342;2023-04-24T10:27:33;2.13;;;1.50;;
4961;SDS011;2496;52.468;13.342;2023-04-24T10:30:01;2.50;;;1.40;;
4961;SDS011;2496;52.468;13.342;2023-04-24T10:32:29;3.70;;;2.00;;
4961;SDS011;2496;52.468;13.342;2023-04-24T10:34:56;2.10;;;1.20;;
4961;SDS011;2496;52.468;13.342;2023-04-24T10:37:25;2.27;;;1.60;;
4961;SDS011;2496;52.468;13.342;2023-04-24T10:39:52;3.30;;;1.53;;
4961;SDS011;2496;52.468;13.342;2023-04-24T10:42:19;2.43;;;1.33;;
4961;SDS011;2496;52.468;13.342;2023-04-24T10:44:48;3.37;;;1.53;;
4961;SDS011;2496;52.468;13.342;2023-04-24T10:47:16;1.90;;;1.30;;
4961;SDS011;2496;52.468;13.342;2023-04-24T10:49:43;1.93;;;1.70;;
4961;SDS011;2496;52.468;13.342;2023-04-24T10:52:10;3.13;;;1.60;;
4961;SDS011;2496;52.468;13.342;2023-04-24T10:54:41;1.73;;;1.30;;
4961;SDS011;2496;52.468;13.342;2023-04-24T10:57:26;2.77;;;1.37;;
4961;SDS011;2496;52.468;13.342;2023-04-24T11:00:15;3.47;;;1.10;;
4961;SDS011;2496;52.468;13.342;2023-04-24T11:02:45;1.77;;;1.10;;
4961;SDS011;2496;52.468;13.342;2023-04-24T11:05:18;1.60;;;1.23;;
4961;SDS011;2496;52.468;13.342;2023-04-24T11:10:39;3.70;;;1.47;;
4961;SDS011;2496;52.468;13.342;2023-04-24T11:13:06;1.40;;;1.30;;
4961;SDS011;2496;52.468;13.342;2023-04-24T11:15:36;2.60;;;1.40;;
4961;SDS011;2496;52.468;13.342;2023-04-24T11:18:12;2.10;;;1.30;;
4961;SDS011;2496;52.468;13.342;2023-04-24T11:20:41;2.27;;;1.70;;
4961;SDS011;2496;52.468;13.342;2023-04-24T11:23:08;1.33;;;1.20;;
4961;SDS011;2496;52.468;13.342;2023-04-24T11:25:39;4.60;;;1.10;;
4961;SDS011;2496;52.468;13.342;2023-04-24T11:28:07;2.43;;;1.30;;
4961;SDS011;2496;52.468;13.342;2023-04-24T11:30:42;6.47;;;1.97;;
4961;SDS011;2496;52.468;13.342;2023-04-24T11:33:09;4.50;;;2.80;;
4961;SDS011;2496;52.468;13.342;2023-04-24T11:35:39;4.13;;;1.70;;
4961;SDS011;2496;52.468;13.342;2023-04-24T11:38:06;1.80;;;1.30;;
4961;SDS011;2496;52.468;13.342;2023-04-24T11:40:33;2.80;;;1.60;;
4961;SDS011;2496;52.468;13.342;2023-04-24T11:43:01;1.77;;;1.10;;
4961;SDS011;2496;52.468;13.342;2023-04-24T11:45:30;4.00;;;1.47;;
4961;SDS011;2496;52.468;13.342;2023-04-24T11:47:59;2.27;;;1.60;;
4961;SDS011;2496;52.468;13.342;2023-04-24T11:50:26;1.50;;;1.10;;
4961;SDS011;2496;52.468;13.342;2023-04-24T11:52:54;1.60;;;1.27;;
4961;SDS011;2496;52.468;13.342;2023-04-24T11:55:25;2.40;;;1.37;;
4961;SDS011;2496;52.468;13.342;2023-04-24T11:57:55;2.50;;;1.60;;
4961;SDS011;2496;52.468;13.342;2023-04-24T12:00:23;1.67;;;1.30;;
4961;SDS011;2496;52.468;13.342;2023-04-24T12:03:03;2.80;;;1.40;;
4961;SDS011;2496;52.468;13.342;2023-04-24T12:05:34;2.00;;;1.70;;
4961;SDS011;2496;52.468;13.342;2023-04-24T12:08:01;2.20;;;1.60;;
4961;SDS011;2496;52.468;13.342;2023-04-24T12:10:29;1.60;;;1.43;;
4961;SDS011;2496;52.468;13.342;2023-04-24T12:12:58;2.13;;;1.50;;
4961;SDS011;2496;52.468;13.342;2023-04-24T12:15:26;3.93;;;1.67;;
4961;SDS011;2496;52.468;13.342;2023-04-24T12:17:54;5.20;;;1.50;;
4961;SDS011;2496;52.468;13.342;2023-04-24T12:20:26;2.20;;;1.37;;
4961;SDS011;2496;52.468;13.342;2023-04-24T12:22:54;2.93;;;1.37;;
4961;SDS011;2496;52.468;13.342;2023-04-24T12:25:22;4.80;;;1.63;;
4961;SDS011;2496;52.468;13.342;2023-04-24T12:27:52;2.30;;;1.33;;
4961;SDS011;2496;52.468;13.342;2023-04-24T12:30:20;3.10;;;1.30;;
4961;SDS011;2496;52.468;13.342;2023-04-24T12:32:52;3.47;;;1.40;;
4961;SDS011;2496;52.468;13.342;2023-04-24T12:35:20;5.33;;;1.53;;
4961;SDS011;2496;52.468;13.342;2023-04-24T12:37:50;3.43;;;1.40;;
4961;SDS011;2496;52.468;13.342;2023-04-24T12:40:18;2.50;;;1.30;;
4961;SDS011;2496;52.468;13.342;2023-04-24T12:42:46;3.07;;;1.40;;
4961;SDS011;2496;52.468;13.342;2023-04-24T12:45:14;6.93;;;1.20;;
4961;SDS011;2496;52.468;13.342;2023-04-24T12:47:42;1.50;;;1.40;;
4961;SDS011;2496;52.468;13.342;2023-04-24T12:50:11;3.20;;;1.40;;
4961;SDS011;2496;52.468;13.342;2023-04-24T12:52:40;2.73;;;1.20;;
4961;SDS011;2496;52.468;13.342;2023-04-24T12:55:09;1.20;;;1.10;;
4961;SDS011;2496;52.468;13.342;2023-04-24T12:57:38;4.00;;;1.53;;
4961;SDS011;2496;52.468;13.342;2023-04-24T13:00:06;4.20;;;1.20;;
4961;SDS011;2496;52.468;13.342;2023-04-24T13:02:35;7.60;;;1.23;;
4961;SDS011;2496;52.468;13.342;2023-04-24T13:05:02;3.17;;;1.33;;
4961;SDS011;2496;52.468;13.342;2023-04-24T13:07:29;2.77;;;1.40;;
4961;SDS011;2496;52.468;13.342;2023-04-24T13:09:56;8.63;;;1.60;;
4961;SDS011;2496;52.468;13.342;2023-04-24T13:12:25;2.73;;;1.60;;
4961;SDS011;2496;52.468;13.342;2023-04-24T13:14:52;2.80;;;1.50;;
4961;SDS011;2496;52.468;13.342;2023-04-24T13:17:19;3.30;;;1.20;;
4961;SDS011;2496;52.468;13.342;2023-04-24T13:19:49;2.13;;;1.10;;
4961;SDS011;2496;52.468;13.342;2023-04-24T13:22:16;4.43;;;1.20;;
4961;SDS011;2496;52.468;13.342;2023-04-24T13:24:44;1.43;;;1.03;;
4961;SDS011;2496;52.468;13.342;2023-04-24T13:27:13;4.20;;;1.40;;
4961;SDS011;2496;52.468;13.342;2023-04-24T13:29:42;3.10;;;1.30;;
4961;SDS011;2496;52.468;13.342;2023-04-24T13:32:09;1.80;;;1.00;;
4961;SDS011;2496;52.468;13.342;2023-04-24T13:34:36;2.43;;;1.17;;
4961;SDS011;2496;52.468;13.342;2023-04-24T13:37:03;2.37;;;1.03;;
4961;SDS011;2496;52.468;13.342;2023-04-24T13:39:31;2.70;;;1.30;;
4961;SDS011;2496;52.468;13.342;2023-04-24T13:41:58;2.20;;;1.63;;
4961;SDS011;2496;52.468;13.342;2023-04-24T13:44:26;1.60;;;1.30;;
4961;SDS011;2496;52.468;13.342;2023-04-24T13:46:55;2.27;;;1.40;;
4961;SDS011;2496;52.468;13.342;2023-04-24T13:49:22;1.30;;;1.00;;
4961;SDS011;2496;52.468;13.342;2023-04-24T13:51:51;4.50;;;1.50;;
4961;SDS011;2496;52.468;13.342;2023-04-24T13:54:18;1.60;;;1.17;;
4961;SDS011;2496;52.468;13.342;2023-04-24T13:56:45;4.17;;;1.43;;
4961;SDS011;2496;52.468;13.342;2023-04-24T13:59:12;9.60;;;1.40;;
4961;SDS011;2496;52.468;13.342;2023-04-24T14:01:39;4.47;;;1.40;;
4961;SDS011;2496;52.468;13.342;2023-04-24T14:04:08;2.10;;;1.63;;
4961;SDS011;2496;52.468;13.342;2023-04-24T14:06:35;2.17;;;1.53;;
4961;SDS011;2496;52.468;13.342;2023-04-24T14:09:02;3.83;;;1.50;;
4961;SDS011;2496;52.468;13.342;2023-04-24T14:11:29;4.60;;;1.57;;
4961;SDS011;2496;52.468;13.342;2023-04-24T14:13:56;2.07;;;1.17;;
4961;SDS011;2496;52.468;13.342;2023-04-24T14:16:23;8.73;;;1.50;;
4961;SDS011;2496;52.468;13.342;2023-04-24T14:18:50;1.93;;;1.10;;
4961;SDS011;2496;52.468;13.342;2023-04-24T14:21:19;1.30;;;1.03;;
4961;SDS011;2496;52.468;13.342;2023-04-24T14:23:46;2.20;;;1.70;;
4961;SDS011;2496;52.468;13.342;2023-04-24T14:26:13;2.57;;;1.50;;
4961;SDS011;2496;52.468;13.342;2023-04-24T14:28:40;1.50;;;1.30;;
4961;SDS011;2496;52.468;13.342;2023-04-24T14:31:07;4.10;;;1.20;;
4961;SDS011;2496;52.468;13.342;2023-04-24T14:33:34;1.97;;;1.50;;
4961;SDS011;2496;52.468;13.342;2023-04-24T14:36:01;3.10;;;1.23;;
4961;SDS011;2496;52.468;13.342;2023-04-24T14:38:32;4.40;;;1.77;;
4961;SDS011;2496;52.468;13.342;2023-04-24T14:40:59;3.40;;;1.80;;
4961;SDS011;2496;52.468;13.342;2023-04-24T14:43:26;1.80;;;1.17;;
4961;SDS011;2496;52.468;13.342;2023-04-24T14:45:53;1.63;;;1.47;;
4961;SDS011;2496;52.468;13.342;2023-04-24T14:48:20;1.60;;;1.50;;
4961;SDS011;2496;52.468;13.342;2023-04-24T14:50:47;1.67;;;1.50;;
4961;SDS011;2496;52.468;13.342;2023-04-24T14:53:14;2.57;;;1.50;;
4961;SDS011;2496;52.468;13.342;2023-04-24T14:55:42;3.73;;;1.40;;
4961;SDS011;2496;52.468;13.342;2023-04-24T14:58:09;2.53;;;2.07;;
4961;SDS011;2496;52.468;13.342;2023-04-24T15:00:37;1.90;;;1.60;;
4961;SDS011;2496;52.468;13.342;2023-04-24T15:03:04;2.17;;;1.97;;
4961;SDS011;2496;52.468;13.342;2023-04-24T15:05:32;4.30;;;2.33;;
4961;SDS011;2496;52.468;13.342;2023-04-24T15:07:59;2.90;;;1.60;;